sensor_id;sensor_type;location;lat;lon;timestamp;temperature;humidity
22908;DHT22;11620;50.050;8.690;2023-09-19T00:02:12;15.30;99.90
22908;DHT22;11620;50.050;8.690;2023-09-19T00:04:58;15.50;99.90
22908;DHT22;11620;50.050;8.690;2023-09-19T00:07:45;15.40;99.90
22908;DHT22;11620;50.050;8.690;2023-09-19T00:10:33;15.50;99.90
22908;DHT22;11620;50.050;8.690;2023-09-19T00:13:22;15.60;99.90
22908;DHT22;11620;50.050;8.690;2023-09-19T00:16:11;15.50;99.90
22908;DHT22;11620;50.050;8.690;2023-09-19T00:18:58;15.60;99.90
22908;DHT22;11620;50.050;8.690;2023-09-19T00:21:44;15.40;99.90
22908;DHT22;11620;50.050;8.690;2023-09-19T00:24:32;15.60;99.90
22908;DHT22;11620;50.050;8.690;2023-09-19T00:27:18;15.50;99.90
22908;DHT22;11620;50.050;8.690;2023-09-19T00:30:06;15.40;99.90
22908;DHT22;11620;50.050;8.690;2023-09-19T00:32:54;15.30;99.90
22908;DHT22;11620;50.050;8.690;2023-09-19T00:35:49;15.30;99.90
22908;DHT22;11620;50.050;8.690;2023-09-19T00:38:36;15.10;99.90
22908;DHT22;11620;50.050;8.690;2023-09-19T00:41:22;15.10;99.90
22908;DHT22;11620;50.050;8.690;2023-09-19T00:44:10;15.20;99.90
22908;DHT22;11620;50.050;8.690;2023-09-19T00:46:58;15.20;99.90
22908;DHT22;11620;50.050;8.690;2023-09-19T00:49:45;15.20;99.90
22908;DHT22;11620;50.050;8.690;2023-09-19T00:52:39;15.20;99.90
22908;DHT22;11620;50.050;8.690;2023-09-19T00:55:26;15.10;99.90
22908;DHT22;11620;50.050;8.690;2023-09-19T00:58:17;15.30;99.90
22908;DHT22;11620;50.050;8.690;2023-09-19T01:01:05;15.30;99.90
22908;DHT22;11620;50.050;8.690;2023-09-19T01:03:53;15.30;99.90
22908;DHT22;11620;50.050;8.690;2023-09-19T01:06:39;15.40;99.90
22908;DHT22;11620;50.050;8.690;2023-09-19T01:09:26;15.30;99.90
22908;DHT22;11620;50.050;8.690;2023-09-19T01:12:16;15.30;99.90
22908;DHT22;11620;50.050;8.690;2023-09-19T01:15:21;15.30;99.90
22908;DHT22;11620;50.050;8.690;2023-09-19T01:30:40;15.40;99.90
22908;DHT22;11620;50.050;8.690;2023-09-19T01:33:55;15.20;99.90
22908;DHT22;11620;50.050;8.690;2023-09-19T01:36:50;15.30;99.90
22908;DHT22;11620;50.050;8.690;2023-09-19T01:39:36;15.40;99.90
22908;DHT22;11620;50.050;8.690;2023-09-19T01:52:04;15.50;99.90
22908;DHT22;11620;50.050;8.690;2023-09-19T01:54:56;15.40;99.90
22908;DHT22;11620;50.050;8.690;2023-09-19T01:58:07;15.40;99.90
22908;DHT22;11620;50.050;8.690;2023-09-19T02:00:55;15.50;99.90
22908;DHT22;11620;50.050;8.690;2023-09-19T02:03:46;15.40;99.90
22908;DHT22;11620;50.050;8.690;2023-09-19T02:06:33;15.40;99.90
22908;DHT22;11620;50.050;8.690;2023-09-19T02:09:22;15.50;99.90
22908;DHT22;11620;50.050;8.690;2023-09-19T02:12:09;15.50;99.90
22908;DHT22;11620;50.050;8.690;2023-09-19T02:14:55;15.70;99.90
22908;DHT22;11620;50.050;8.690;2023-09-19T02:17:43;15.80;99.90
22908;DHT22;11620;50.050;8.690;2023-09-19T02:20:32;15.80;99.90
22908;DHT22;11620;50.050;8.690;2023-09-19T02:23:19;15.80;99.90
22908;DHT22;11620;50.050;8.690;2023-09-19T02:26:06;15.80;99.90
22908;DHT22;11620;50.050;8.690;2023-09-19T02:28:52;15.70;99.90
22908;DHT22;11620;50.050;8.690;2023-09-19T02:31:39;15.60;99.90
22908;DHT22;11620;50.050;8.690;2023-09-19T02:34:25;15.70;99.90
22908;DHT22;11620;50.050;8.690;2023-09-19T02:37:12;15.70;99.90
22908;DHT22;11620;50.050;8.690;2023-09-19T02:39:59;15.70;99.90
22908;DHT22;11620;50.050;8.690;2023-09-19T02:42:52;15.80;99.90
22908;DHT22;11620;50.050;8.690;2023-09-19T02:45:38;15.80;99.90
22908;DHT22;11620;50.050;8.690;2023-09-19T02:48:25;15.70;99.90
22908;DHT22;11620;50.050;8.690;2023-09-19T02:51:11;15.60;99.90
22908;DHT22;11620;50.050;8.690;2023-09-19T02:53:59;15.60;99.90
22908;DHT22;11620;50.050;8.690;2023-09-19T02:56:45;15.50;99.90
22908;DHT22;11620;50.050;8.690;2023-09-19T02:59:33;15.40;99.90
22908;DHT22;11620;50.050;8.690;2023-09-19T03:02:19;15.40;99.90
22908;DHT22;11620;50.050;8.690;2023-09-19T03:05:06;15.40;99.90
22908;DHT22;11620;50.050;8.690;2023-09-19T03:07:53;15.40;99.90
22908;DHT22;11620;50.050;8.690;2023-09-19T03:10:41;15.30;99.90
22908;DHT22;11620;50.050;8.690;2023-09-19T03:13:28;15.20;99.90
22908;DHT22;11620;50.050;8.690;2023-09-19T03:16:17;15.10;99.90
22908;DHT22;11620;50.050;8.690;2023-09-19T03:19:03;15.20;99.90
22908;DHT22;11620;50.050;8.690;2023-09-19T03:21:49;15.10;99.90
22908;DHT22;11620;50.050;8.690;2023-09-19T03:24:36;15.00;99.90
22908;DHT22;11620;50.050;8.690;2023-09-19T03:27:23;15.00;99.90
22908;DHT22;11620;50.050;8.690;2023-09-19T03:30:10;15.10;99.90
22908;DHT22;11620;50.050;8.690;2023-09-19T03:32:59;15.00;99.90
22908;DHT22;11620;50.050;8.690;2023-09-19T03:35:52;15.00;99.90
22908;DHT22;11620;50.050;8.690;2023-09-19T03:38:39;15.00;99.90
22908;DHT22;11620;50.050;8.690;2023-09-19T03:41:25;14.90;99.90
22908;DHT22;11620;50.050;8.690;2023-09-19T03:44:12;14.90;99.90
22908;DHT22;11620;50.050;8.690;2023-09-19T03:46:58;14.80;99.90
22908;DHT22;11620;50.050;8.690;2023-09-19T03:49:45;14.70;99.90
22908;DHT22;11620;50.050;8.690;2023-09-19T03:52:31;14.80;99.90
22908;DHT22;11620;50.050;8.690;2023-09-19T03:55:17;14.80;99.90
22908;DHT22;11620;50.050;8.690;2023-09-19T03:58:04;14.80;99.90
22908;DHT22;11620;50.050;8.690;2023-09-19T04:00:54;14.60;99.90
22908;DHT22;11620;50.050;8.690;2023-09-19T04:03:40;14.50;99.90
22908;DHT22;11620;50.050;8.690;2023-09-19T04:06:34;14.50;99.90
22908;DHT22;11620;50.050;8.690;2023-09-19T04:09:23;14.60;99.90
22908;DHT22;11620;50.050;8.690;2023-09-19T04:12:09;14.70;99.90
22908;DHT22;11620;50.050;8.690;2023-09-19T04:14:56;14.70;99.90
22908;DHT22;11620;50.050;8.690;2023-09-19T04:17:42;14.60;99.90
22908;DHT22;11620;50.050;8.690;2023-09-19T04:20:28;14.50;99.90
22908;DHT22;11620;50.050;8.690;2023-09-19T04:23:15;14.50;99.90
22908;DHT22;11620;50.050;8.690;2023-09-19T04:26:01;14.60;99.90
22908;DHT22;11620;50.050;8.690;2023-09-19T04:28:49;14.50;99.90
22908;DHT22;11620;50.050;8.690;2023-09-19T04:31:36;14.60;99.90
22908;DHT22;11620;50.050;8.690;2023-09-19T04:34:30;14.50;99.90
22908;DHT22;11620;50.050;8.690;2023-09-19T04:37:17;14.60;99.90
22908;DHT22;11620;50.050;8.690;2023-09-19T04:40:04;14.70;99.90
22908;DHT22;11620;50.050;8.690;2023-09-19T04:42:56;14.70;99.90
22908;DHT22;11620;50.050;8.690;2023-09-19T04:45:42;14.70;99.90
22908;DHT22;11620;50.050;8.690;2023-09-19T04:48:28;14.70;99.90
22908;DHT22;11620;50.050;8.690;2023-09-19T04:51:15;14.70;99.90
22908;DHT22;11620;50.050;8.690;2023-09-19T04:54:01;14.60;99.90
22908;DHT22;11620;50.050;8.690;2023-09-19T04:56:48;14.60;99.90
22908;DHT22;11620;50.050;8.690;2023-09-19T04:59:35;14.70;99.90
22908;DHT22;11620;50.050;8.690;2023-09-19T05:02:22;14.70;99.90
22908;DHT22;11620;50.050;8.690;2023-09-19T05:05:09;14.80;99.90
22908;DHT22;11620;50.050;8.690;2023-09-19T05:07:57;14.90;99.90
22908;DHT22;11620;50.050;8.690;2023-09-19T05:10:43;14.90;99.90
22908;DHT22;11620;50.050;8.690;2023-09-19T05:13:29;14.70;99.90
22908;DHT22;11620;50.050;8.690;2023-09-19T05:16:16;14.70;99.90
22908;DHT22;11620;50.050;8.690;2023-09-19T05:19:03;14.60;99.90
22908;DHT22;11620;50.050;8.690;2023-09-19T05:21:49;14.40;99.90
22908;DHT22;11620;50.050;8.690;2023-09-19T05:24:36;14.40;99.90
22908;DHT22;11620;50.050;8.690;2023-09-19T05:27:22;14.40;99.90
22908;DHT22;11620;50.050;8.690;2023-09-19T05:30:09;14.30;99.90
22908;DHT22;11620;50.050;8.690;2023-09-19T05:32:55;14.30;99.90
22908;DHT22;11620;50.050;8.690;2023-09-19T05:35:42;14.40;99.90
22908;DHT22;11620;50.050;8.690;2023-09-19T05:38:28;14.30;99.90
22908;DHT22;11620;50.050;8.690;2023-09-19T05:41:14;14.30;99.90
22908;DHT22;11620;50.050;8.690;2023-09-19T05:44:03;14.30;99.90
22908;DHT22;11620;50.050;8.690;2023-09-19T05:46:49;14.40;99.90
22908;DHT22;11620;50.050;8.690;2023-09-19T05:49:36;14.30;99.90
22908;DHT22;11620;50.050;8.690;2023-09-19T05:52:25;14.20;99.90
22908;DHT22;11620;50.050;8.690;2023-09-19T05:55:11;14.20;99.90
22908;DHT22;11620;50.050;8.690;2023-09-19T05:57:58;14.30;99.90
22908;DHT22;11620;50.050;8.690;2023-09-19T06:00:45;14.30;99.90
22908;DHT22;11620;50.050;8.690;2023-09-19T06:03:33;14.30;99.90
22908;DHT22;11620;50.050;8.690;2023-09-19T06:06:21;14.40;99.90
22908;DHT22;11620;50.050;8.690;2023-09-19T06:09:08;14.50;99.90
22908;DHT22;11620;50.050;8.690;2023-09-19T06:11:57;14.60;99.90
22908;DHT22;11620;50.050;8.690;2023-09-19T06:14:43;14.50;99.90
22908;DHT22;11620;50.050;8.690;2023-09-19T06:17:29;14.40;99.90
22908;DHT22;11620;50.050;8.690;2023-09-19T06:20:17;14.40;99.90
22908;DHT22;11620;50.050;8.690;2023-09-19T06:23:05;14.50;99.90
22908;DHT22;11620;50.050;8.690;2023-09-19T06:25:52;14.60;99.90
22908;DHT22;11620;50.050;8.690;2023-09-19T06:28:40;14.60;99.90
22908;DHT22;11620;50.050;8.690;2023-09-19T06:31:28;14.50;99.90
22908;DHT22;11620;50.050;8.690;2023-09-19T06:34:15;14.60;99.90
22908;DHT22;11620;50.050;8.690;2023-09-19T06:37:02;14.60;99.90
22908;DHT22;11620;50.050;8.690;2023-09-19T06:39:49;14.80;99.90
22908;DHT22;11620;50.050;8.690;2023-09-19T06:42:36;14.60;99.90
22908;DHT22;11620;50.050;8.690;2023-09-19T06:45:23;14.80;99.90
22908;DHT22;11620;50.050;8.690;2023-09-19T06:48:12;14.80;99.90
22908;DHT22;11620;50.050;8.690;2023-09-19T06:50:59;14.90;99.90
22908;DHT22;11620;50.050;8.690;2023-09-19T06:53:50;15.00;99.90
22908;DHT22;11620;50.050;8.690;2023-09-19T06:56:40;15.10;99.90
22908;DHT22;11620;50.050;8.690;2023-09-19T06:59:27;15.10;99.90
22908;DHT22;11620;50.050;8.690;2023-09-19T07:02:14;15.00;99.90
22908;DHT22;11620;50.050;8.690;2023-09-19T07:05:00;15.10;99.90
22908;DHT22;11620;50.050;8.690;2023-09-19T07:07:46;15.10;99.90
22908;DHT22;11620;50.050;8.690;2023-09-19T07:10:33;15.20;99.90
22908;DHT22;11620;50.050;8.690;2023-09-19T07:13:19;15.20;99.90
22908;DHT22;11620;50.050;8.690;2023-09-19T07:16:06;15.10;99.90
22908;DHT22;11620;50.050;8.690;2023-09-19T07:18:55;15.20;99.90
22908;DHT22;11620;50.050;8.690;2023-09-19T07:21:42;15.20;99.90
22908;DHT22;11620;50.050;8.690;2023-09-19T07:24:29;15.30;99.90
22908;DHT22;11620;50.050;8.690;2023-09-19T07:27:15;15.20;99.90
22908;DHT22;11620;50.050;8.690;2023-09-19T07:30:02;15.20;99.90
22908;DHT22;11620;50.050;8.690;2023-09-19T07:32:48;15.30;99.90
22908;DHT22;11620;50.050;8.690;2023-09-19T07:35:34;15.30;99.90
22908;DHT22;11620;50.050;8.690;2023-09-19T07:38:21;15.30;99.90
22908;DHT22;11620;50.050;8.690;2023-09-19T07:41:08;15.40;99.90
22908;DHT22;11620;50.050;8.690;2023-09-19T07:43:55;15.30;99.90
22908;DHT22;11620;50.050;8.690;2023-09-19T07:46:41;15.30;99.90
22908;DHT22;11620;50.050;8.690;2023-09-19T07:49:27;15.30;99.90
22908;DHT22;11620;50.050;8.690;2023-09-19T07:52:14;15.30;99.90
22908;DHT22;11620;50.050;8.690;2023-09-19T07:55:01;15.20;99.90
22908;DHT22;11620;50.050;8.690;2023-09-19T07:57:55;15.20;99.90
22908;DHT22;11620;50.050;8.690;2023-09-19T08:00:41;15.40;99.90
22908;DHT22;11620;50.050;8.690;2023-09-19T08:03:28;15.60;99.90
22908;DHT22;11620;50.050;8.690;2023-09-19T08:06:14;15.60;99.90
22908;DHT22;11620;50.050;8.690;2023-09-19T08:09:00;15.60;99.90
22908;DHT22;11620;50.050;8.690;2023-09-19T08:11:53;15.80;99.90
22908;DHT22;11620;50.050;8.690;2023-09-19T08:14:40;15.80;99.90
22908;DHT22;11620;50.050;8.690;2023-09-19T08:17:27;15.90;99.90
22908;DHT22;11620;50.050;8.690;2023-09-19T08:20:14;16.00;99.90
22908;DHT22;11620;50.050;8.690;2023-09-19T08:23:05;16.10;99.90
22908;DHT22;11620;50.050;8.690;2023-09-19T08:25:56;16.10;99.90
22908;DHT22;11620;50.050;8.690;2023-09-19T08:28:43;16.20;99.90
22908;DHT22;11620;50.050;8.690;2023-09-19T08:31:29;16.30;99.90
22908;DHT22;11620;50.050;8.690;2023-09-19T08:34:15;16.50;99.90
22908;DHT22;11620;50.050;8.690;2023-09-19T08:37:02;16.60;99.90
22908;DHT22;11620;50.050;8.690;2023-09-19T08:39:48;16.80;99.90
22908;DHT22;11620;50.050;8.690;2023-09-19T08:42:47;16.90;99.90
22908;DHT22;11620;50.050;8.690;2023-09-19T08:45:35;17.20;99.90
22908;DHT22;11620;50.050;8.690;2023-09-19T08:51:20;17.50;99.90
22908;DHT22;11620;50.050;8.690;2023-09-19T08:54:08;17.30;99.90
22908;DHT22;11620;50.050;8.690;2023-09-19T08:57:00;17.20;99.90
22908;DHT22;11620;50.050;8.690;2023-09-19T08:59:54;17.50;99.90
22908;DHT22;11620;50.050;8.690;2023-09-19T09:02:42;17.30;99.90
22908;DHT22;11620;50.050;8.690;2023-09-19T09:05:30;17.50;99.90
22908;DHT22;11620;50.050;8.690;2023-09-19T09:08:18;17.50;99.90
22908;DHT22;11620;50.050;8.690;2023-09-19T09:11:06;17.60;99.90
22908;DHT22;11620;50.050;8.690;2023-09-19T09:13:54;17.90;99.90
22908;DHT22;11620;50.050;8.690;2023-09-19T09:16:40;18.30;99.90
22908;DHT22;11620;50.050;8.690;2023-09-19T09:19:26;18.30;99.90
22908;DHT22;11620;50.050;8.690;2023-09-19T09:22:16;18.20;99.90
22908;DHT22;11620;50.050;8.690;2023-09-19T09:25:02;18.10;99.90
22908;DHT22;11620;50.050;8.690;2023-09-19T09:28:01;18.20;99.90
22908;DHT22;11620;50.050;8.690;2023-09-19T09:30:48;18.00;99.90
22908;DHT22;11620;50.050;8.690;2023-09-19T09:33:35;18.00;99.90
22908;DHT22;11620;50.050;8.690;2023-09-19T09:36:40;18.20;99.90
22908;DHT22;11620;50.050;8.690;2023-09-19T09:39:31;18.10;99.90
22908;DHT22;11620;50.050;8.690;2023-09-19T09:42:32;17.70;99.90
22908;DHT22;11620;50.050;8.690;2023-09-19T09:45:19;17.90;99.90
22908;DHT22;11620;50.050;8.690;2023-09-19T09:48:14;17.90;99.90
22908;DHT22;11620;50.050;8.690;2023-09-19T09:51:01;18.00;99.90
22908;DHT22;11620;50.050;8.690;2023-09-19T09:53:49;18.40;99.90
22908;DHT22;11620;50.050;8.690;2023-09-19T09:56:55;18.80;99.90
22908;DHT22;11620;50.050;8.690;2023-09-19T09:59:48;18.60;99.90
22908;DHT22;11620;50.050;8.690;2023-09-19T10:02:44;18.20;99.90
22908;DHT22;11620;50.050;8.690;2023-09-19T10:05:33;18.50;99.90
22908;DHT22;11620;50.050;8.690;2023-09-19T10:08:26;18.60;99.90
22908;DHT22;11620;50.050;8.690;2023-09-19T10:11:17;18.90;99.90
22908;DHT22;11620;50.050;8.690;2023-09-19T10:14:06;19.40;99.90
22908;DHT22;11620;50.050;8.690;2023-09-19T10:16:56;19.50;99.90
22908;DHT22;11620;50.050;8.690;2023-09-19T10:22:45;19.50;99.90
22908;DHT22;11620;50.050;8.690;2023-09-19T10:25:44;19.50;99.90
22908;DHT22;11620;50.050;8.690;2023-09-19T10:28:34;19.50;99.90
22908;DHT22;11620;50.050;8.690;2023-09-19T10:31:22;19.70;99.90
22908;DHT22;11620;50.050;8.690;2023-09-19T10:34:11;19.80;99.90
22908;DHT22;11620;50.050;8.690;2023-09-19T10:36:58;20.30;99.90
22908;DHT22;11620;50.050;8.690;2023-09-19T10:39:49;20.50;99.90
22908;DHT22;11620;50.050;8.690;2023-09-19T10:42:38;20.10;99.90
22908;DHT22;11620;50.050;8.690;2023-09-19T10:45:24;20.10;99.90
22908;DHT22;11620;50.050;8.690;2023-09-19T10:48:12;19.60;99.90
22908;DHT22;11620;50.050;8.690;2023-09-19T10:51:12;19.70;99.90
22908;DHT22;11620;50.050;8.690;2023-09-19T10:54:12;19.80;99.90
22908;DHT22;11620;50.050;8.690;2023-09-19T10:56:59;19.50;99.90
22908;DHT22;11620;50.050;8.690;2023-09-19T11:00:07;19.60;99.90
22908;DHT22;11620;50.050;8.690;2023-09-19T11:03:16;19.40;99.90
22908;DHT22;11620;50.050;8.690;2023-09-19T11:09:02;19.40;99.90
22908;DHT22;11620;50.050;8.690;2023-09-19T11:12:03;19.10;99.90
22908;DHT22;11620;50.050;8.690;2023-09-19T11:14:49;19.00;99.90
22908;DHT22;11620;50.050;8.690;2023-09-19T11:17:33;19.20;99.90
22908;DHT22;11620;50.050;8.690;2023-09-19T11:20:22;19.40;99.90
22908;DHT22;11620;50.050;8.690;2023-09-19T11:25:58;19.30;99.90
22908;DHT22;11620;50.050;8.690;2023-09-19T11:28:45;19.30;99.90
22908;DHT22;11620;50.050;8.690;2023-09-19T11:31:43;19.30;99.90
22908;DHT22;11620;50.050;8.690;2023-09-19T11:40:15;19.00;99.90
22908;DHT22;11620;50.050;8.690;2023-09-19T11:43:30;18.80;99.90
22908;DHT22;11620;50.050;8.690;2023-09-19T11:46:20;18.90;99.90
22908;DHT22;11620;50.050;8.690;2023-09-19T11:49:09;19.50;99.90
22908;DHT22;11620;50.050;8.690;2023-09-19T11:52:21;19.70;99.90
22908;DHT22;11620;50.050;8.690;2023-09-19T11:55:10;20.40;99.90
22908;DHT22;11620;50.050;8.690;2023-09-19T11:57:57;21.00;99.90
22908;DHT22;11620;50.050;8.690;2023-09-19T12:00:45;21.20;99.90
22908;DHT22;11620;50.050;8.690;2023-09-19T12:03:31;21.60;99.90
22908;DHT22;11620;50.050;8.690;2023-09-19T12:06:18;21.40;99.90
22908;DHT22;11620;50.050;8.690;2023-09-19T12:09:05;21.50;99.90
22908;DHT22;11620;50.050;8.690;2023-09-19T12:11:57;21.30;99.90
22908;DHT22;11620;50.050;8.690;2023-09-19T12:14:48;21.00;99.90
22908;DHT22;11620;50.050;8.690;2023-09-19T12:17:36;21.00;99.90
22908;DHT22;11620;50.050;8.690;2023-09-19T12:20:22;20.50;99.90
22908;DHT22;11620;50.050;8.690;2023-09-19T12:23:13;20.40;99.90
22908;DHT22;11620;50.050;8.690;2023-09-19T12:26:02;20.40;99.90
22908;DHT22;11620;50.050;8.690;2023-09-19T12:28:58;20.50;99.90
22908;DHT22;11620;50.050;8.690;2023-09-19T12:31:58;20.60;99.90
22908;DHT22;11620;50.050;8.690;2023-09-19T12:34:51;20.70;99.90
22908;DHT22;11620;50.050;8.690;2023-09-19T12:37:44;21.20;99.90
22908;DHT22;11620;50.050;8.690;2023-09-19T12:40:34;21.50;99.90
22908;DHT22;11620;50.050;8.690;2023-09-19T12:43:23;21.60;99.90
22908;DHT22;11620;50.050;8.690;2023-09-19T12:46:10;20.70;99.90
22908;DHT22;11620;50.050;8.690;2023-09-19T12:49:16;20.60;99.90
22908;DHT22;11620;50.050;8.690;2023-09-19T12:52:05;20.90;99.90
22908;DHT22;11620;50.050;8.690;2023-09-19T12:54:52;21.30;99.90
22908;DHT22;11620;50.050;8.690;2023-09-19T12:57:38;21.60;99.90
22908;DHT22;11620;50.050;8.690;2023-09-19T13:00:35;21.60;99.90
22908;DHT22;11620;50.050;8.690;2023-09-19T13:03:25;21.30;99.90
22908;DHT22;11620;50.050;8.690;2023-09-19T13:06:12;21.30;99.90
22908;DHT22;11620;50.050;8.690;2023-09-19T13:09:09;21.10;99.90
22908;DHT22;11620;50.050;8.690;2023-09-19T13:11:55;21.00;99.90
22908;DHT22;11620;50.050;8.690;2023-09-19T13:14:42;21.10;99.90
22908;DHT22;11620;50.050;8.690;2023-09-19T13:17:46;21.60;99.90
22908;DHT22;11620;50.050;8.690;2023-09-19T13:20:32;21.50;99.90
22908;DHT22;11620;50.050;8.690;2023-09-19T13:23:28;21.30;99.90
22908;DHT22;11620;50.050;8.690;2023-09-19T13:26:14;21.10;99.90
22908;DHT22;11620;50.050;8.690;2023-09-19T13:29:01;21.40;99.90
22908;DHT22;11620;50.050;8.690;2023-09-19T13:31:51;21.50;99.90
22908;DHT22;11620;50.050;8.690;2023-09-19T13:34:39;21.50;99.90
22908;DHT22;11620;50.050;8.690;2023-09-19T13:37:25;21.50;99.90
22908;DHT22;11620;50.050;8.690;2023-09-19T13:40:13;21.80;99.90
22908;DHT22;11620;50.050;8.690;2023-09-19T13:43:03;21.80;99.90
22908;DHT22;11620;50.050;8.690;2023-09-19T13:45:49;21.50;99.90
22908;DHT22;11620;50.050;8.690;2023-09-19T13:48:36;21.50;99.90
22908;DHT22;11620;50.050;8.690;2023-09-19T13:51:22;21.30;99.90
22908;DHT22;11620;50.050;8.690;2023-09-19T13:54:09;21.40;99.90
22908;DHT22;11620;50.050;8.690;2023-09-19T13:56:56;21.30;99.90
22908;DHT22;11620;50.050;8.690;2023-09-19T13:59:42;21.40;99.90
22908;DHT22;11620;50.050;8.690;2023-09-19T14:02:29;21.20;99.90
22908;DHT22;11620;50.050;8.690;2023-09-19T14:05:16;21.40;99.90
22908;DHT22;11620;50.050;8.690;2023-09-19T14:08:03;21.70;99.90
22908;DHT22;11620;50.050;8.690;2023-09-19T14:10:49;21.50;99.90
22908;DHT22;11620;50.050;8.690;2023-09-19T14:13:35;21.60;99.90
22908;DHT22;11620;50.050;8.690;2023-09-19T14:16:22;21.40;99.90
22908;DHT22;11620;50.050;8.690;2023-09-19T14:19:10;21.40;99.90
22908;DHT22;11620;50.050;8.690;2023-09-19T14:21:56;21.30;99.90
22908;DHT22;11620;50.050;8.690;2023-09-19T14:24:43;21.50;99.90
22908;DHT22;11620;50.050;8.690;2023-09-19T14:27:30;21.50;99.90
22908;DHT22;11620;50.050;8.690;2023-09-19T14:30:16;21.40;99.90
22908;DHT22;11620;50.050;8.690;2023-09-19T14:33:03;21.50;99.90
22908;DHT22;11620;50.050;8.690;2023-09-19T14:35:50;21.50;99.90
22908;DHT22;11620;50.050;8.690;2023-09-19T14:38:37;21.20;99.90
22908;DHT22;11620;50.050;8.690;2023-09-19T14:41:24;20.90;99.90
22908;DHT22;11620;50.050;8.690;2023-09-19T14:44:11;20.90;99.90
22908;DHT22;11620;50.050;8.690;2023-09-19T14:46:57;20.60;99.90
22908;DHT22;11620;50.050;8.690;2023-09-19T14:49:44;20.60;99.90
22908;DHT22;11620;50.050;8.690;2023-09-19T14:52:31;20.70;99.90
22908;DHT22;11620;50.050;8.690;2023-09-19T14:55:17;20.60;99.90
22908;DHT22;11620;50.050;8.690;2023-09-19T14:58:06;20.50;99.90
22908;DHT22;11620;50.050;8.690;2023-09-19T15:00:52;20.50;99.90
22908;DHT22;11620;50.050;8.690;2023-09-19T15:03:40;20.40;99.90
22908;DHT22;11620;50.050;8.690;2023-09-19T15:06:27;20.50;99.90
22908;DHT22;11620;50.050;8.690;2023-09-19T15:09:13;20.50;99.90
22908;DHT22;11620;50.050;8.690;2023-09-19T15:11:59;20.50;99.90
22908;DHT22;11620;50.050;8.690;2023-09-19T15:14:45;20.60;99.90
22908;DHT22;11620;50.050;8.690;2023-09-19T15:17:32;20.50;99.90
22908;DHT22;11620;50.050;8.690;2023-09-19T15:20:18;20.40;99.90
22908;DHT22;11620;50.050;8.690;2023-09-19T15:23:05;20.60;99.90
22908;DHT22;11620;50.050;8.690;2023-09-19T15:25:51;20.60;99.90
22908;DHT22;11620;50.050;8.690;2023-09-19T15:28:39;20.50;99.90
22908;DHT22;11620;50.050;8.690;2023-09-19T15:31:26;20.40;99.90
22908;DHT22;11620;50.050;8.690;2023-09-19T15:34:12;20.30;99.90
22908;DHT22;11620;50.050;8.690;2023-09-19T15:37:02;20.20;99.90
22908;DHT22;11620;50.050;8.690;2023-09-19T15:39:48;20.30;99.90
22908;DHT22;11620;50.050;8.690;2023-09-19T15:42:35;20.10;99.90
22908;DHT22;11620;50.050;8.690;2023-09-19T15:45:21;20.00;99.90
22908;DHT22;11620;50.050;8.690;2023-09-19T15:48:07;20.00;99.90
22908;DHT22;11620;50.050;8.690;2023-09-19T15:50:54;20.10;99.90
22908;DHT22;11620;50.050;8.690;2023-09-19T15:53:49;20.00;99.90
22908;DHT22;11620;50.050;8.690;2023-09-19T15:56:35;20.20;99.90
22908;DHT22;11620;50.050;8.690;2023-09-19T15:59:21;20.00;99.90
22908;DHT22;11620;50.050;8.690;2023-09-19T16:02:08;19.90;99.90
22908;DHT22;11620;50.050;8.690;2023-09-19T16:04:55;19.90;99.90
22908;DHT22;11620;50.050;8.690;2023-09-19T16:07:41;19.90;99.90
22908;DHT22;11620;50.050;8.690;2023-09-19T16:10:27;19.90;99.90
22908;DHT22;11620;50.050;8.690;2023-09-19T16:13:14;19.80;99.90
22908;DHT22;11620;50.050;8.690;2023-09-19T16:16:00;19.80;99.90
22908;DHT22;11620;50.050;8.690;2023-09-19T16:18:47;19.80;99.90
22908;DHT22;11620;50.050;8.690;2023-09-19T16:21:34;19.80;99.90
22908;DHT22;11620;50.050;8.690;2023-09-19T16:24:22;19.90;99.90
22908;DHT22;11620;50.050;8.690;2023-09-19T16:27:08;20.00;99.90
22908;DHT22;11620;50.050;8.690;2023-09-19T16:29:55;19.90;99.90
22908;DHT22;11620;50.050;8.690;2023-09-19T16:32:41;19.80;99.90
22908;DHT22;11620;50.050;8.690;2023-09-19T16:35:27;19.70;99.90
22908;DHT22;11620;50.050;8.690;2023-09-19T16:38:14;19.80;99.90
22908;DHT22;11620;50.050;8.690;2023-09-19T16:41:00;19.70;99.90
22908;DHT22;11620;50.050;8.690;2023-09-19T16:43:47;19.60;99.90
22908;DHT22;11620;50.050;8.690;2023-09-19T16:46:34;19.70;99.90
22908;DHT22;11620;50.050;8.690;2023-09-19T16:49:20;19.70;99.90
22908;DHT22;11620;50.050;8.690;2023-09-19T16:52:07;19.70;99.90
22908;DHT22;11620;50.050;8.690;2023-09-19T16:54:53;19.70;99.90
22908;DHT22;11620;50.050;8.690;2023-09-19T16:57:39;19.60;99.90
22908;DHT22;11620;50.050;8.690;2023-09-19T17:00:28;19.60;99.90
22908;DHT22;11620;50.050;8.690;2023-09-19T17:03:15;19.60;99.90
22908;DHT22;11620;50.050;8.690;2023-09-19T17:06:02;19.60;99.90
22908;DHT22;11620;50.050;8.690;2023-09-19T17:08:50;19.40;99.90
22908;DHT22;11620;50.050;8.690;2023-09-19T17:11:36;19.40;99.90
22908;DHT22;11620;50.050;8.690;2023-09-19T17:14:24;19.30;99.90
22908;DHT22;11620;50.050;8.690;2023-09-19T17:17:10;19.20;99.90
22908;DHT22;11620;50.050;8.690;2023-09-19T17:19:57;19.20;99.90
22908;DHT22;11620;50.050;8.690;2023-09-19T17:22:44;19.40;99.90
22908;DHT22;11620;50.050;8.690;2023-09-19T17:25:31;19.20;99.90
22908;DHT22;11620;50.050;8.690;2023-09-19T17:28:19;19.30;99.90
22908;DHT22;11620;50.050;8.690;2023-09-19T17:31:16;19.20;99.90
22908;DHT22;11620;50.050;8.690;2023-09-19T17:34:04;19.30;99.90
22908;DHT22;11620;50.050;8.690;2023-09-19T17:36:50;19.20;99.90
22908;DHT22;11620;50.050;8.690;2023-09-19T17:39:36;19.10;99.90
22908;DHT22;11620;50.050;8.690;2023-09-19T17:42:23;18.90;99.90
22908;DHT22;11620;50.050;8.690;2023-09-19T17:45:10;19.10;99.90
22908;DHT22;11620;50.050;8.690;2023-09-19T17:47:57;18.90;99.90
22908;DHT22;11620;50.050;8.690;2023-09-19T17:50:44;18.80;99.90
22908;DHT22;11620;50.050;8.690;2023-09-19T17:53:31;18.80;99.90
22908;DHT22;11620;50.050;8.690;2023-09-19T17:56:17;18.90;99.90
22908;DHT22;11620;50.050;8.690;2023-09-19T17:59:04;18.70;99.90
22908;DHT22;11620;50.050;8.690;2023-09-19T18:01:50;18.60;99.90
22908;DHT22;11620;50.050;8.690;2023-09-19T18:04:37;18.70;99.90
22908;DHT22;11620;50.050;8.690;2023-09-19T18:07:23;18.80;99.90
22908;DHT22;11620;50.050;8.690;2023-09-19T18:10:10;18.80;99.90
22908;DHT22;11620;50.050;8.690;2023-09-19T18:12:56;18.60;99.90
22908;DHT22;11620;50.050;8.690;2023-09-19T18:15:43;18.60;99.90
22908;DHT22;11620;50.050;8.690;2023-09-19T18:18:29;18.50;99.90
22908;DHT22;11620;50.050;8.690;2023-09-19T18:21:16;18.50;99.90
22908;DHT22;11620;50.050;8.690;2023-09-19T18:24:07;18.30;99.90